createdAt,value
2019-02-21T00:02:16.061Z,99.90
2019-02-21T00:04:42.968Z,99.90
2019-02-21T00:07:09.993Z,99.90
2019-02-21T00:09:37.007Z,99.90
2019-02-21T00:12:04.233Z,99.90
2019-02-21T00:14:31.149Z,99.90
2019-02-21T00:16:58.146Z,99.90
2019-02-21T00:19:25.185Z,99.90
2019-02-21T00:21:51.995Z,99.90
2019-02-21T00:24:18.813Z,99.90
2019-02-21T00:26:45.718Z,99.90
2019-02-21T00:29:12.625Z,99.90
2019-02-21T00:31:40.185Z,99.90
2019-02-21T00:34:07.350Z,99.90
2019-02-21T00:36:34.268Z,99.90
2019-02-21T00:39:01.134Z,99.90
2019-02-21T00:41:28.034Z,99.90
2019-02-21T00:43:54.851Z,99.90
2019-02-21T00:46:21.765Z,99.90
2019-02-21T00:48:48.574Z,99.90
2019-02-21T00:51:15.395Z,99.90
2019-02-21T00:53:43.113Z,99.90
2019-02-21T00:56:10.125Z,99.90
2019-02-21T00:58:36.962Z,99.90
2019-02-21T01:01:04.033Z,99.90
2019-02-21T01:03:31.032Z,99.90
2019-02-21T01:05:57.945Z,99.90
2019-02-21T01:08:24.957Z,99.90
2019-02-21T01:10:51.941Z,99.90
2019-02-21T01:13:18.850Z,99.90
2019-02-21T01:15:45.804Z,99.90
2019-02-21T01:18:12.902Z,99.90
2019-02-21T01:20:39.922Z,99.90
2019-02-21T01:23:06.829Z,99.90
2019-02-21T01:25:33.760Z,99.90
2019-02-21T01:28:00.826Z,99.90
2019-02-21T01:30:27.753Z,99.90
2019-02-21T01:32:54.701Z,99.90
2019-02-21T01:35:21.727Z,99.90
2019-02-21T01:37:48.641Z,99.90
2019-02-21T01:40:15.492Z,99.90
2019-02-21T01:42:42.584Z,99.90
2019-02-21T01:45:09.509Z,99.90
2019-02-21T01:47:36.313Z,99.90
2019-02-21T01:50:03.646Z,99.90
2019-02-21T01:52:30.554Z,99.90
2019-02-21T01:54:57.371Z,99.90
2019-02-21T01:57:24.335Z,99.90
2019-02-21T01:59:51.329Z,99.90
2019-02-21T02:02:18.339Z,99.90
2019-02-21T02:04:45.249Z,99.90
2019-02-21T02:07:12.158Z,99.90
2019-02-21T02:09:38.959Z,99.90
2019-02-21T02:12:05.990Z,99.90
2019-02-21T02:14:33.034Z,99.90
2019-02-21T02:16:59.951Z,99.90
2019-02-21T02:19:26.854Z,99.90
2019-02-21T02:21:53.760Z,99.90
2019-02-21T02:24:20.646Z,99.90
2019-02-21T02:26:47.507Z,99.90
2019-02-21T02:29:14.565Z,99.90
2019-02-21T02:31:41.680Z,99.90
2019-02-21T02:34:08.575Z,99.90
2019-02-21T02:36:35.365Z,99.90
2019-02-21T02:39:02.349Z,99.90
2019-02-21T02:41:29.199Z,99.90
2019-02-21T02:43:56.146Z,99.90
2019-02-21T02:46:22.956Z,99.90
2019-02-21T02:48:49.934Z,99.90
2019-02-21T02:51:16.869Z,99.90
2019-02-21T02:53:44.179Z,99.90
2019-02-21T02:56:11.092Z,99.90
2019-02-21T02:58:37.875Z,99.90
2019-02-21T03:01:04.747Z,99.90
2019-02-21T03:03:31.534Z,99.90
2019-02-21T03:05:58.427Z,99.90
2019-02-21T03:08:25.303Z,99.90
2019-02-21T03:10:52.217Z,99.90
2019-02-21T03:13:19.099Z,99.90
2019-02-21T03:15:45.984Z,99.90
2019-02-21T03:18:12.767Z,99.90
2019-02-21T03:20:39.662Z,99.90
2019-02-21T03:23:06.448Z,99.90
2019-02-21T03:25:33.266Z,99.90
2019-02-21T03:28:00.139Z,99.90
2019-02-21T03:30:27.105Z,99.90
2019-02-21T03:32:53.920Z,99.90
2019-02-21T03:35:20.897Z,99.90
2019-02-21T03:37:47.810Z,99.90
2019-02-21T03:40:14.893Z,99.90
2019-02-21T03:42:41.788Z,99.90
2019-02-21T03:45:09.390Z,99.90
2019-02-21T03:47:36.202Z,99.90
2019-02-21T03:50:03.385Z,99.90
2019-02-21T03:52:30.304Z,99.90
2019-02-21T03:54:57.372Z,99.90
2019-02-21T03:57:24.364Z,99.90
2019-02-21T03:59:51.469Z,99.90
2019-02-21T04:02:18.455Z,99.90
2019-02-21T04:04:45.441Z,99.90
2019-02-21T04:07:12.409Z,99.90
2019-02-21T04:09:39.210Z,99.90
2019-02-21T04:12:06.126Z,99.90
2019-02-21T04:14:33.317Z,99.90
2019-02-21T04:17:00.209Z,99.90
2019-02-21T04:19:27.190Z,99.90
2019-02-21T04:21:53.986Z,99.90
2019-02-21T04:24:22.468Z,99.90
2019-02-21T04:26:49.397Z,99.90
2019-02-21T04:29:16.454Z,99.90
2019-02-21T04:31:43.336Z,99.90
2019-02-21T04:34:10.226Z,99.90
2019-02-21T04:36:37.018Z,99.90
2019-02-21T04:39:04.388Z,99.90
2019-02-21T04:41:31.252Z,99.90
2019-02-21T04:43:58.059Z,99.90
2019-02-21T04:46:25.037Z,99.90
2019-02-21T04:48:51.824Z,99.90
2019-02-21T04:51:18.689Z,99.90
2019-02-21T04:53:45.487Z,99.90
2019-02-21T04:56:12.265Z,99.90
2019-02-21T04:58:39.146Z,99.90
2019-02-21T05:01:06.111Z,99.90
2019-02-21T05:03:32.918Z,99.90
2019-02-21T05:05:59.792Z,99.90
2019-02-21T05:08:26.660Z,99.90
2019-02-21T05:10:53.466Z,99.90
2019-02-21T05:13:20.359Z,99.90
2019-02-21T05:15:47.225Z,99.90
2019-02-21T05:18:14.021Z,99.90
2019-02-21T05:20:40.813Z,99.90
2019-02-21T05:23:07.593Z,99.90
2019-02-21T05:25:34.373Z,99.90
2019-02-21T05:28:41.208Z,99.90
2019-02-21T05:31:12.917Z,99.90
2019-02-21T05:33:45.246Z,99.90
2019-02-21T05:36:30.724Z,99.90
2019-02-21T05:39:17.291Z,99.90
2019-02-21T05:41:50.032Z,99.90
2019-02-21T05:44:22.614Z,99.90
2019-02-21T05:46:53.933Z,99.90
2019-02-21T05:49:45.981Z,99.90
2019-02-21T05:52:17.508Z,99.90
2019-02-21T05:54:53.081Z,99.90
2019-02-21T05:57:38.248Z,99.90
2019-02-21T06:00:22.310Z,99.90
2019-02-21T06:03:02.063Z,99.90
2019-02-21T06:05:37.265Z,99.90
2019-02-21T06:08:13.652Z,99.90
2019-02-21T06:11:17.882Z,99.90
2019-02-21T06:14:14.404Z,99.90
2019-02-21T06:16:58.760Z,99.90
2019-02-21T06:19:38.703Z,99.90
2019-02-21T06:22:28.194Z,99.90
2019-02-21T06:25:16.133Z,99.90
2019-02-21T06:27:58.526Z,99.90
2019-02-21T06:30:43.686Z,99.90
2019-02-21T06:33:10.666Z,99.90
2019-02-21T06:35:37.658Z,99.90
2019-02-21T06:38:04.566Z,99.90
2019-02-21T06:40:31.572Z,99.90
2019-02-21T06:42:58.342Z,99.90
2019-02-21T06:45:25.234Z,99.90
2019-02-21T06:47:52.018Z,99.90
2019-02-21T06:50:26.418Z,99.90
2019-02-21T06:52:47.494Z,99.90
2019-02-21T06:55:14.352Z,99.90
2019-02-21T06:57:41.191Z,99.90
2019-02-21T07:00:08.301Z,99.90
2019-02-21T07:02:35.073Z,99.90
2019-02-21T07:05:02.005Z,99.90
2019-02-21T07:07:31.569Z,99.90
2019-02-21T07:09:58.449Z,99.90
2019-02-21T07:12:25.229Z,99.90
2019-02-21T07:14:52.109Z,99.90
2019-02-21T07:17:20.311Z,99.90
2019-02-21T07:19:47.135Z,99.90
2019-02-21T07:22:17.660Z,99.90
2019-02-21T07:24:43.909Z,99.20
2019-02-21T07:27:10.703Z,98.50
2019-02-21T07:29:38.807Z,98.10
2019-02-21T07:32:05.890Z,97.90
2019-02-21T07:34:32.770Z,98.40
2019-02-21T07:36:59.559Z,98.00
2019-02-21T07:39:35.729Z,98.60
2019-02-21T07:41:55.820Z,98.80
2019-02-21T07:44:22.726Z,98.80
2019-02-21T07:46:49.513Z,98.80
2019-02-21T07:49:16.318Z,98.10
2019-02-21T07:51:43.115Z,97.50
2019-02-21T07:54:10.100Z,96.70
2019-02-21T07:56:42.116Z,96.20
2019-02-21T07:59:05.688Z,96.50
2019-02-21T08:01:32.577Z,96.80
2019-02-21T08:03:59.477Z,97.40
2019-02-21T08:06:26.286Z,97.60
2019-02-21T08:08:53.171Z,98.50
2019-02-21T08:11:20.077Z,97.20
2019-02-21T08:13:46.948Z,95.90
2019-02-21T08:16:13.933Z,94.90
2019-02-21T08:18:40.855Z,94.00
2019-02-21T08:21:07.897Z,92.80
2019-02-21T08:23:34.796Z,92.10
2019-02-21T08:26:01.583Z,92.20
2019-02-21T08:28:28.451Z,92.20
2019-02-21T08:30:57.943Z,90.70
2019-02-21T08:33:30.737Z,91.00
2019-02-21T08:35:57.962Z,91.50
2019-02-21T08:38:25.000Z,92.40
2019-02-21T08:40:53.320Z,93.30
2019-02-21T08:43:20.594Z,94.30
2019-02-21T08:45:47.459Z,94.50
2019-02-21T08:48:14.341Z,94.00
2019-02-21T08:50:41.222Z,93.10
2019-02-21T08:53:07.993Z,92.00
2019-02-21T08:55:34.773Z,90.10
2019-02-21T08:58:01.558Z,86.70
2019-02-21T09:00:31.313Z,84.50
2019-02-21T09:02:57.506Z,81.70
2019-02-21T09:05:24.578Z,76.20
2019-02-21T09:07:51.555Z,70.50
2019-02-21T09:10:18.551Z,64.20
2019-02-21T09:12:48.200Z,63.00
2019-02-21T09:15:15.101Z,59.70
2019-02-21T09:17:42.009Z,55.60
2019-02-21T09:20:09.276Z,55.30
2019-02-21T09:22:36.270Z,53.20
2019-02-21T09:25:03.605Z,51.50
2019-02-21T09:27:30.506Z,50.70
2019-02-21T09:29:57.297Z,49.90
2019-02-21T09:32:24.195Z,47.80
2019-02-21T09:34:50.982Z,47.50
2019-02-21T09:37:17.871Z,48.30
2019-02-21T09:39:44.669Z,49.90
2019-02-21T09:42:11.454Z,50.70
2019-02-21T09:44:38.225Z,51.10
2019-02-21T09:47:05.020Z,49.80
2019-02-21T09:49:31.810Z,48.10
2019-02-21T09:51:58.614Z,46.20
2019-02-21T09:54:25.486Z,45.10
2019-02-21T09:56:53.257Z,44.50
2019-02-21T09:59:20.173Z,45.30
2019-02-21T10:01:47.083Z,44.70
2019-02-21T10:04:13.853Z,43.50
2019-02-21T10:06:40.685Z,43.20
2019-02-21T10:09:07.673Z,41.60
2019-02-21T10:11:34.690Z,39.20
2019-02-21T10:14:01.704Z,36.80
2019-02-21T10:16:28.525Z,36.70
2019-02-21T10:18:55.303Z,36.40
2019-02-21T10:21:22.180Z,37.70
2019-02-21T10:23:48.977Z,37.60
2019-02-21T10:26:15.959Z,36.60
2019-02-21T10:28:45.037Z,36.00
2019-02-21T10:31:11.681Z,35.70
2019-02-21T10:33:46.472Z,36.20
2019-02-21T10:36:07.335Z,35.70
2019-02-21T10:38:34.208Z,35.60
2019-02-21T10:41:00.985Z,34.90
2019-02-21T10:43:27.776Z,34.00
2019-02-21T10:45:54.646Z,35.10
2019-02-21T10:48:21.531Z,34.20
2019-02-21T10:50:48.500Z,32.90
2019-02-21T10:53:15.393Z,33.70
2019-02-21T10:55:42.161Z,33.30
2019-02-21T10:58:09.069Z,32.80
2019-02-21T11:00:36.030Z,31.80
2019-02-21T11:03:03.029Z,31.70
2019-02-21T11:05:30.015Z,31.20
2019-02-21T11:07:57.002Z,31.10
2019-02-21T11:10:27.204Z,31.90
2019-02-21T11:12:54.261Z,30.30
2019-02-21T11:15:22.137Z,29.20
2019-02-21T11:17:49.154Z,27.90
2019-02-21T11:20:16.044Z,27.80
2019-02-21T11:22:42.985Z,28.30
2019-02-21T11:25:09.920Z,28.20
2019-02-21T11:27:37.486Z,27.90
2019-02-21T11:30:05.741Z,28.40
2019-02-21T11:32:32.765Z,29.30
2019-02-21T11:35:06.354Z,29.40
2019-02-21T11:37:28.230Z,28.40
2019-02-21T11:39:55.113Z,28.90
2019-02-21T11:42:21.889Z,28.00
2019-02-21T11:44:48.761Z,27.50
2019-02-21T11:47:15.729Z,28.50
2019-02-21T11:49:42.527Z,30.00
2019-02-21T11:52:10.407Z,30.20
2019-02-21T11:54:37.491Z,30.70
2019-02-21T11:57:04.483Z,31.80
2019-02-21T11:59:31.384Z,33.40
2019-02-21T12:01:58.264Z,33.10
2019-02-21T12:04:25.261Z,35.20
2019-02-21T12:06:52.024Z,35.70
2019-02-21T12:09:18.814Z,33.30
2019-02-21T12:11:45.692Z,32.90
2019-02-21T12:14:12.601Z,32.10
2019-02-21T12:16:39.377Z,32.40
2019-02-21T12:19:06.241Z,31.50
2019-02-21T12:21:33.051Z,31.00
2019-02-21T12:23:59.828Z,31.20
2019-02-21T12:26:26.607Z,31.60
2019-02-21T12:28:53.388Z,34.20
2019-02-21T12:31:20.239Z,37.30
2019-02-21T12:33:47.037Z,39.60
2019-02-21T12:36:13.937Z,42.00
2019-02-21T12:38:41.079Z,44.60
2019-02-21T12:41:08.142Z,44.80
2019-02-21T12:43:34.940Z,45.30
2019-02-21T12:46:01.856Z,45.10
2019-02-21T12:48:28.693Z,43.70
2019-02-21T12:50:55.497Z,44.70
2019-02-21T12:53:22.286Z,45.30
2019-02-21T12:55:49.088Z,45.20
2019-02-21T12:58:15.880Z,45.50
2019-02-21T13:00:42.793Z,45.50
2019-02-21T13:03:09.690Z,45.20
2019-02-21T13:05:40.876Z,45.50
2019-02-21T13:08:05.294Z,42.10
2019-02-21T13:10:34.793Z,38.70
2019-02-21T13:13:00.904Z,35.60
2019-02-21T13:15:27.685Z,32.70
2019-02-21T13:17:54.465Z,32.90
2019-02-21T13:20:21.361Z,33.80
2019-02-21T13:22:48.122Z,34.30
2019-02-21T13:25:15.121Z,34.60
2019-02-21T13:27:42.136Z,34.50
2019-02-21T13:30:11.538Z,34.40
2019-02-21T13:32:38.431Z,34.10
2019-02-21T13:35:05.930Z,34.70
2019-02-21T13:37:32.706Z,35.70
2019-02-21T13:40:00.602Z,35.50
2019-02-21T13:42:28.846Z,36.80
2019-02-21T13:44:55.949Z,38.00
2019-02-21T13:47:22.834Z,39.20
2019-02-21T13:49:49.620Z,40.00
2019-02-21T13:52:16.488Z,41.30
2019-02-21T13:54:43.463Z,41.80
2019-02-21T13:57:10.381Z,43.80
2019-02-21T13:59:40.019Z,44.70
2019-02-21T14:02:06.941Z,45.80
2019-02-21T14:04:33.841Z,46.10
2019-02-21T14:07:00.737Z,48.00
2019-02-21T14:09:27.524Z,49.00
2019-02-21T14:11:54.399Z,50.00
2019-02-21T14:14:21.284Z,50.20
2019-02-21T14:16:48.198Z,50.70
2019-02-21T14:19:15.017Z,50.00
2019-02-21T14:21:43.776Z,49.50
2019-02-21T14:24:10.725Z,49.90
2019-02-21T14:26:37.651Z,49.50
2019-02-21T14:29:04.441Z,47.70
2019-02-21T14:31:33.560Z,46.90
2019-02-21T14:34:00.149Z,46.90
2019-02-21T14:36:27.168Z,47.40
2019-02-21T14:38:53.949Z,47.90
2019-02-21T14:41:20.775Z,47.90
2019-02-21T14:43:47.561Z,44.80
2019-02-21T14:46:14.561Z,42.70
2019-02-21T14:48:41.490Z,45.10
2019-02-21T14:51:08.398Z,46.40
2019-02-21T14:53:35.278Z,47.50
2019-02-21T14:56:02.195Z,46.30
2019-02-21T14:58:29.165Z,47.80
2019-02-21T15:00:56.144Z,46.20
2019-02-21T15:03:23.076Z,46.30
2019-02-21T15:05:49.887Z,46.20
2019-02-21T15:08:22.075Z,47.50
2019-02-21T15:10:49.209Z,48.00
2019-02-21T15:13:16.118Z,48.90
2019-02-21T15:15:43.132Z,49.80
2019-02-21T15:18:11.274Z,50.30
2019-02-21T15:20:38.483Z,50.90
2019-02-21T15:23:05.294Z,51.00
2019-02-21T15:25:32.316Z,51.40
2019-02-21T15:27:59.326Z,51.60
2019-02-21T15:30:26.353Z,51.80
2019-02-21T15:32:53.279Z,52.00
2019-02-21T15:35:20.259Z,52.50
2019-02-21T15:37:47.243Z,51.80
2019-02-21T15:40:14.233Z,50.90
2019-02-21T15:42:41.134Z,50.60
2019-02-21T15:45:10.258Z,50.80
2019-02-21T15:47:37.157Z,51.90
2019-02-21T15:50:05.488Z,52.70
2019-02-21T15:52:32.531Z,53.80
2019-02-21T15:55:09.026Z,54.30
2019-02-21T15:57:28.021Z,54.90
2019-02-21T15:59:54.878Z,55.30
2019-02-21T16:02:21.806Z,55.60
2019-02-21T16:04:48.706Z,56.30
2019-02-21T16:07:25.070Z,56.70
2019-02-21T16:09:51.995Z,56.90
2019-02-21T16:12:18.820Z,55.50
2019-02-21T16:14:45.629Z,54.50
2019-02-21T16:17:12.586Z,54.30
2019-02-21T16:19:39.482Z,53.90
2019-02-21T16:22:06.395Z,54.70
2019-02-21T16:24:33.282Z,56.00
2019-02-21T16:27:00.323Z,57.20
2019-02-21T16:29:27.166Z,58.40
2019-02-21T16:31:54.137Z,59.30
2019-02-21T16:34:21.145Z,60.70
2019-02-21T16:36:48.050Z,61.80
2019-02-21T16:39:15.045Z,63.90
2019-02-21T16:41:44.263Z,64.80
2019-02-21T16:44:10.734Z,65.60
2019-02-21T16:46:37.742Z,66.90
2019-02-21T16:49:04.768Z,68.40
2019-02-21T16:51:31.582Z,70.00
2019-02-21T16:53:58.475Z,71.70
2019-02-21T16:56:26.638Z,72.90
2019-02-21T16:58:53.757Z,73.50
2019-02-21T17:01:20.650Z,74.30
2019-02-21T17:03:47.560Z,75.30
2019-02-21T17:06:14.361Z,76.50
2019-02-21T17:08:41.225Z,77.30
2019-02-21T17:11:08.121Z,78.40
2019-02-21T17:13:34.933Z,80.50
2019-02-21T17:16:01.824Z,80.60
2019-02-21T17:18:28.609Z,81.80
2019-02-21T17:20:55.394Z,81.80
2019-02-21T17:23:23.078Z,82.80
2019-02-21T17:25:50.279Z,83.80
2019-02-21T17:28:17.162Z,85.10
2019-02-21T17:30:44.156Z,85.90
2019-02-21T17:33:11.180Z,87.60
2019-02-21T17:35:38.190Z,87.80
2019-02-21T17:38:05.195Z,88.60
2019-02-21T17:40:32.134Z,90.00
2019-02-21T17:42:59.022Z,89.20
2019-02-21T17:45:25.993Z,89.50
2019-02-21T17:47:52.947Z,89.50
2019-02-21T17:50:20.075Z,90.00
2019-02-21T17:52:47.086Z,90.00
2019-02-21T17:55:14.363Z,89.40
2019-02-21T17:57:41.500Z,89.00
2019-02-21T18:00:16.891Z,89.20
2019-02-21T18:02:42.932Z,89.50
2019-02-21T18:05:09.987Z,89.50
2019-02-21T18:07:36.974Z,89.50
2019-02-21T18:10:05.583Z,90.00
2019-02-21T18:12:32.423Z,90.00
2019-02-21T18:14:59.254Z,90.40
2019-02-21T18:17:26.594Z,90.50
2019-02-21T18:19:53.570Z,90.90
2019-02-21T18:22:20.464Z,90.90
2019-02-21T18:24:47.411Z,90.80
2019-02-21T18:27:14.224Z,90.80
2019-02-21T18:29:43.592Z,90.80
2019-02-21T18:32:10.097Z,91.00
2019-02-21T18:34:36.993Z,91.20
2019-02-21T18:37:04.089Z,91.10
2019-02-21T18:39:31.113Z,91.00
2019-02-21T18:41:58.013Z,91.20
2019-02-21T18:44:25.255Z,91.20
2019-02-21T18:46:55.181Z,91.40
2019-02-21T18:49:21.874Z,91.60
2019-02-21T18:51:49.287Z,91.70
2019-02-21T18:54:16.667Z,91.80
2019-02-21T18:56:43.620Z,92.10
2019-02-21T18:59:10.621Z,92.00
2019-02-21T19:01:37.636Z,92.50
2019-02-21T19:04:04.634Z,92.20
2019-02-21T19:06:31.435Z,92.10
2019-02-21T19:08:58.340Z,91.90
2019-02-21T19:11:25.396Z,91.90
2019-02-21T19:13:52.322Z,91.80
2019-02-21T19:16:19.322Z,91.90
2019-02-21T19:18:46.105Z,92.00
2019-02-21T19:21:13.142Z,92.10
2019-02-21T19:23:40.015Z,92.00
2019-02-21T19:26:06.918Z,92.10
2019-02-21T19:28:33.798Z,92.00
2019-02-21T19:31:05.165Z,92.00
2019-02-21T19:33:32.160Z,92.10
2019-02-21T19:35:59.257Z,92.10
2019-02-21T19:38:26.133Z,92.20
2019-02-21T19:40:53.129Z,92.50
2019-02-21T19:43:20.015Z,92.80
2019-02-21T19:45:46.994Z,93.00
2019-02-21T19:48:13.837Z,93.00
2019-02-21T19:50:41.037Z,93.20
2019-02-21T19:53:08.050Z,93.60
2019-02-21T19:55:35.228Z,93.20
2019-02-21T19:58:02.244Z,93.50
2019-02-21T20:00:30.272Z,93.50
2019-02-21T20:02:57.178Z,93.60
2019-02-21T20:05:24.358Z,93.70
2019-02-21T20:07:51.360Z,93.80
2019-02-21T20:10:18.424Z,94.10
2019-02-21T20:12:45.531Z,94.40
2019-02-21T20:15:12.636Z,94.60
2019-02-21T20:17:39.649Z,94.70
2019-02-21T20:20:08.050Z,94.70
2019-02-21T20:22:35.060Z,94.90
2019-02-21T20:25:02.069Z,95.10
2019-02-21T20:27:29.103Z,95.10
2019-02-21T20:29:56.110Z,95.10
2019-02-21T20:32:23.133Z,95.20
2019-02-21T20:34:50.026Z,95.50
2019-02-21T20:37:16.940Z,95.50
2019-02-21T20:39:43.955Z,95.60
2019-02-21T20:42:10.761Z,95.70
2019-02-21T20:44:37.742Z,95.90
2019-02-21T20:47:04.743Z,96.30
2019-02-21T20:49:31.533Z,96.10
2019-02-21T20:51:58.449Z,96.30
2019-02-21T20:54:25.333Z,96.50
2019-02-21T20:56:52.265Z,96.30
2019-02-21T20:59:19.468Z,96.10
2019-02-21T21:01:46.429Z,96.00
2019-02-21T21:04:13.347Z,95.80
2019-02-21T21:06:40.140Z,95.50
2019-02-21T21:09:07.338Z,95.50
2019-02-21T21:11:34.148Z,95.50
2019-02-21T21:14:01.056Z,95.60
2019-02-21T21:16:27.853Z,95.60
2019-02-21T21:18:54.669Z,95.90
2019-02-21T21:21:21.562Z,96.20
2019-02-21T21:23:48.360Z,96.30
2019-02-21T21:26:15.261Z,96.60
2019-02-21T21:28:42.048Z,96.50
2019-02-21T21:31:08.957Z,96.50
2019-02-21T21:33:35.997Z,96.50
2019-02-21T21:36:02.989Z,96.40
2019-02-21T21:38:29.905Z,96.40
2019-02-21T21:40:56.709Z,96.40
2019-02-21T21:43:23.588Z,96.40
2019-02-21T21:45:50.474Z,96.70
2019-02-21T21:48:17.362Z,96.50
2019-02-21T21:50:44.257Z,96.40
2019-02-21T21:53:11.162Z,96.30
2019-02-21T21:55:38.061Z,96.30
2019-02-21T21:58:04.881Z,96.30
2019-02-21T22:00:31.769Z,96.30
2019-02-21T22:02:58.689Z,96.20
2019-02-21T22:05:25.573Z,96.20
2019-02-21T22:07:52.489Z,96.20
2019-02-21T22:10:19.382Z,96.10
2019-02-21T22:12:46.388Z,96.10
2019-02-21T22:15:13.547Z,96.00
2019-02-21T22:17:42.196Z,95.90
2019-02-21T22:20:09.527Z,96.10
2019-02-21T22:22:37.105Z,96.10
2019-02-21T22:25:04.452Z,96.00
2019-02-21T22:27:31.273Z,95.80
2019-02-21T22:29:58.263Z,95.80
2019-02-21T22:32:25.031Z,95.80
2019-02-21T22:34:52.028Z,95.90
2019-02-21T22:37:18.876Z,96.10
2019-02-21T22:39:45.704Z,96.40
2019-02-21T22:42:12.619Z,96.30
2019-02-21T22:44:39.486Z,96.50
2019-02-21T22:47:06.378Z,96.50
2019-02-21T22:49:33.270Z,96.60
2019-02-21T22:52:00.051Z,96.70
2019-02-21T22:54:26.941Z,96.80
2019-02-21T22:56:53.825Z,96.90
2019-02-21T22:59:20.734Z,96.90
2019-02-21T23:01:47.970Z,97.00
2019-02-21T23:04:44.253Z,96.90
2019-02-21T23:07:22.431Z,97.00
2019-02-21T23:09:49.314Z,97.10
2019-02-21T23:12:16.113Z,97.00
2019-02-21T23:14:43.018Z,96.90
2019-02-21T23:17:09.997Z,96.90
2019-02-21T23:19:36.992Z,96.80
2019-02-21T23:22:03.989Z,96.80
2019-02-21T23:24:31.062Z,96.80
2019-02-21T23:26:57.935Z,96.80
2019-02-21T23:29:24.921Z,96.80
2019-02-21T23:31:51.799Z,96.80
2019-02-21T23:34:47.160Z,96.80
2019-02-21T23:37:14.142Z,96.70
2019-02-21T23:39:41.244Z,96.50
2019-02-21T23:42:08.159Z,96.60
2019-02-21T23:44:35.053Z,96.70
2019-02-21T23:47:02.053Z,96.90
2019-02-21T23:49:28.841Z,96.80
2019-02-21T23:51:55.725Z,96.80
2019-02-21T23:54:22.537Z,96.80
2019-02-21T23:56:49.449Z,97.00
2019-02-21T23:59:16.347Z,97.10
